Time;durP1;ratioP1;P1;durP2;ratioP2;P2;SDS_P1;SDS_P2;PMS_P1;PMS_P2;Temp;Humidity;BMP_temperature;BMP_pressure;BME280_temperature;BME280_humidity;BME280_pressure;Samples;Min_cycle;Max_cycle;Signal;HPM_P1;HPM_P2
2023/10/28 00:01:45;;;;;;;3.42;0.70;;;;;;;9.23;100.00;97298.31;5049286;28;20053;-78
2023/10/28 00:04:10;;;;;;;1.38;0.40;;;;;;;9.17;100.00;97289.28;5047426;28;20026;-80
2023/10/28 00:06:35;;;;;;;0.65;0.30;;;;;;;9.17;100.00;97293.88;5057516;28;20024;-80
2023/10/28 00:09:00;;;;;;;3.30;0.60;;;;;;;9.17;100.00;97304.66;5050003;28;20092;-78
2023/10/28 00:11:26;;;;;;;1.85;0.57;;;;;;;9.10;100.00;97298.53;5043251;28;20067;-78
2023/10/28 00:13:52;;;;;;;2.60;0.65;;;;;;;9.22;100.00;97304.75;5055654;28;20076;-78
2023/10/28 00:16:17;;;;;;;3.22;0.50;;;;;;;9.25;100.00;97308.88;5050708;28;20029;-78
2023/10/28 00:18:43;;;;;;;1.58;0.38;;;;;;;9.26;100.00;97305.94;5059066;28;20398;-77
2023/10/28 00:21:09;;;;;;;0.88;0.32;;;;;;;9.22;100.00;97304.75;5057130;28;20021;-78
2023/10/28 00:23:35;;;;;;;1.80;0.35;;;;;;;9.21;100.00;97298.53;5043025;28;20025;-78
2023/10/28 00:26:05;;;;;;;1.20;0.40;;;;;;;9.26;100.00;97311.34;5045787;28;20368;-78
2023/10/28 00:28:33;;;;;;;0.30;0.28;;;;;;;9.17;100.00;97283.88;5058694;28;20306;-79
2023/10/28 00:31:00;;;;;;;2.00;0.40;;;;;;;9.31;100.00;97303.38;5037527;28;20310;-78
2023/10/28 00:33:25;;;;;;;12.00;2.47;;;;;;;9.28;100.00;97314.66;5042868;28;20017;-78
2023/10/28 00:35:51;;;;;;;1.23;0.77;;;;;;;9.23;100.00;97298.31;5048249;28;20087;-78
2023/10/28 00:38:17;;;;;;;1.95;0.47;;;;;;;9.31;100.00;97316.88;5036288;28;20249;-78
2023/10/28 00:40:42;;;;;;;0.40;0.22;;;;;;;9.28;100.00;97311.94;5043110;28;20469;-78
2023/10/28 00:43:10;;;;;;;0.40;0.28;;;;;;;9.28;100.00;97308.44;5042500;28;20033;-79
2023/10/28 00:45:36;;;;;;;3.83;0.45;;;;;;;9.36;100.00;97321.59;5043793;28;20021;-78
2023/10/28 00:48:02;;;;;;;1.65;0.40;;;;;;;9.33;100.00;97319.34;5050110;28;20041;-78
2023/10/28 00:50:29;;;;;;;0.17;0.10;;;;;;;9.31;100.00;97322.28;5033057;28;20030;-78
2023/10/28 00:52:58;;;;;;;0.85;0.35;;;;;;;9.35;100.00;97317.22;5029254;28;20040;-77
2023/10/28 00:55:23;;;;;;;0.73;0.30;;;;;;;9.34;100.00;97324.50;5055431;28;20250;-79
2023/10/28 00:57:49;;;;;;;0.50;0.30;;;;;;;9.38;100.00;97331.09;5042298;28;20025;-78
2023/10/28 01:00:15;;;;;;;1.42;0.38;;;;;;;9.31;100.00;97307.97;5049127;28;20024;-78
2023/10/28 01:02:44;;;;;;;0.63;0.52;;;;;;;9.39;100.00;97330.03;5052405;28;20102;-79
2023/10/28 01:05:11;;;;;;;2.42;0.13;;;;;;;9.37;100.00;97324.03;5050876;28;20075;-78
2023/10/28 01:07:45;;;;;;;0.60;0.20;;;;;;;9.36;100.00;97314.31;5054379;28;20092;-77
2023/10/28 01:10:11;;;;;;;1.98;0.40;;;;;;;9.29;100.00;97310.88;5042012;28;20028;-77
2023/10/28 01:12:40;;;;;;;0.65;0.13;;;;;;;9.30;100.00;97320.63;5045965;28;20048;-78
2023/10/28 01:15:06;;;;;;;1.08;0.20;;;;;;;9.32;100.00;97313.09;5043179;28;20029;-78
2023/10/28 01:17:32;;;;;;;0.57;0.20;;;;;;;9.41;100.00;97327.94;5045216;28;20344;-78
2023/10/28 01:19:58;;;;;;;2.28;0.47;;;;;;;9.31;100.00;97321.47;5062816;28;20053;-78
2023/10/28 01:22:24;;;;;;;0.38;0.20;;;;;;;9.38;100.00;97325.69;5042688;28;20036;-77
2023/10/28 01:24:50;;;;;;;0.20;0.10;;;;;;;9.38;100.00;97328.41;5042802;28;20029;-78
2023/10/28 01:27:17;;;;;;;0.85;0.35;;;;;;;9.35;100.00;97318.06;5040144;28;20128;-78
2023/10/28 01:29:42;;;;;;;0.93;0.28;;;;;;;9.31;100.00;97305.25;5053731;28;20027;-77
2023/10/28 01:32:07;;;;;;;2.13;0.28;;;;;;;9.22;100.00;97304.75;5043902;28;20025;-78
2023/10/28 01:34:43;;;;;;;0.20;0.10;;;;;;;9.34;100.00;97326.38;5041833;28;20191;-78
2023/10/28 01:37:08;;;;;;;0.28;0.10;;;;;;;9.37;100.00;97332.13;5053586;28;20029;-78
2023/10/28 01:39:34;;;;;;;0.35;0.20;;;;;;;9.46;100.00;97331.78;5041669;28;20096;-79
2023/10/28 01:41:59;;;;;;;0.88;0.30;;;;;;;9.40;100.00;97333.53;5042935;28;20318;-78
2023/10/28 01:44:25;;;;;;;0.30;0.20;;;;;;;9.38;100.00;97332.97;5041501;28;20025;-78
2023/10/28 01:46:50;;;;;;;0.40;0.10;;;;;;;9.35;100.00;97320.78;5041227;28;20029;-77
2023/10/28 01:49:15;;;;;;;1.75;0.30;;;;;;;9.39;100.00;97330.03;5043176;28;20029;-78
2023/10/28 01:51:41;;;;;;;1.05;0.25;;;;;;;9.31;100.00;97311.47;5046205;28;20045;-78
2023/10/28 01:54:06;;;;;;;0.10;0.10;;;;;;;9.31;100.00;97310.66;5042583;28;20089;-78
2023/10/28 01:56:31;;;;;;;1.83;0.32;;;;;;;9.48;100.00;97337.78;5045054;28;20095;-78
2023/10/28 01:58:57;;;;;;;1.17;0.30;;;;;;;9.32;100.00;97312.28;5042113;28;20021;-77
2023/10/28 02:01:25;;;;;;;0.30;0.30;;;;;;;9.42;100.00;97332.25;5045456;28;20029;-77
2023/10/28 02:03:51;;;;;;;0.30;0.10;;;;;;;9.51;100.00;97350.81;5061366;28;20039;-79
2023/10/28 02:06:17;;;;;;;0.68;0.30;;;;;;;9.48;100.00;97351.28;5050361;28;20088;-80
2023/10/28 02:08:42;;;;;;;0.88;0.20;;;;;;;9.48;100.00;97357.50;5057963;28;20092;-79
2023/10/28 02:11:08;;;;;;;0.43;0.30;;;;;;;9.40;100.00;97352.44;5044636;28;20053;-78
2023/10/28 02:13:35;;;;;;;0.30;0.30;;;;;;;9.45;100.00;97360.66;5041447;28;20277;-78
2023/10/28 02:16:00;;;;;;;0.68;0.20;;;;;;;9.46;100.00;97356.94;5044627;28;20025;-80
2023/10/28 02:18:25;;;;;;;0.68;0.17;;;;;;;9.47;100.00;97365.84;5042305;28;20025;-77
2023/10/28 02:20:52;;;;;;;2.25;0.40;;;;;;;9.44;100.00;97367.94;5047473;28;20033;-78
2023/10/28 02:23:17;;;;;;;0.90;0.45;;;;;;;9.35;100.00;97369.34;5061709;28;20343;-80
2023/10/28 02:25:43;;;;;;;0.70;0.30;;;;;;;9.51;100.00;97380.50;5045420;28;20053;-80
2023/10/28 02:28:09;;;;;;;0.38;0.03;;;;;;;9.48;100.00;97378.28;5044612;28;20421;-79
2023/10/28 02:30:39;;;;;;;0.35;0.10;;;;;;;9.47;100.00;97373.94;5045098;28;20211;-78
2023/10/28 02:33:04;;;;;;;0.65;0.30;;;;;;;9.43;100.00;97379.81;5025664;28;20018;-77
2023/10/28 02:35:29;;;;;;;0.65;0.30;;;;;;;9.15;100.00;97344.53;5033417;28;20070;-77
2023/10/28 02:37:55;;;;;;;0.25;0.10;;;;;;;9.23;100.00;97368.47;5050269;28;20035;-77
2023/10/28 02:40:20;;;;;;;2.90;0.38;;;;;;;9.18;100.00;97371.03;5057240;28;20025;-79
2023/10/28 02:42:45;;;;;;;0.50;0.40;;;;;;;9.12;100.00;97355.78;5059245;28;20062;-80
2023/10/28 02:45:11;;;;;;;0.95;0.30;;;;;;;9.05;100.00;97361.25;5068474;28;20028;-79
2023/10/28 02:47:36;;;;;;;1.38;0.40;;;;;;;8.96;100.00;97351.81;5057595;28;20199;-77
2023/10/28 02:50:01;;;;;;;0.50;0.20;;;;;;;8.94;100.00;97349.38;5065364;28;20021;-80
2023/10/28 02:52:27;;;;;;;2.75;0.52;;;;;;;9.14;100.00;97386.03;5066205;28;20028;-79
2023/10/28 02:54:52;;;;;;;2.47;0.30;;;;;;;9.00;100.00;97353.84;5065024;28;20196;-77
2023/10/28 02:57:18;;;;;;;0.63;0.20;;;;;;;9.06;100.00;97365.59;5041359;28;20374;-79
2023/10/28 02:59:44;;;;;;;0.32;0.17;;;;;;;9.09;100.00;97370.56;5051549;28;20168;-79
2023/10/28 03:02:10;;;;;;;0.57;0.30;;;;;;;9.11;100.00;97381.09;5046109;28;20021;-77
2023/10/28 03:04:35;;;;;;;0.30;0.20;;;;;;;9.08;100.00;97370.78;5060320;28;20142;-78
2023/10/28 03:07:00;;;;;;;1.85;0.30;;;;;;;9.07;100.00;97377.22;5060735;28;20032;-79
2023/10/28 03:09:26;;;;;;;0.85;0.20;;;;;;;9.05;100.00;97373.94;5055657;28;20025;-79
2023/10/28 03:11:51;;;;;;;2.22;0.40;;;;;;;9.05;100.00;97365.84;5055991;28;20208;-79
2023/10/28 03:14:16;;;;;;;1.85;0.50;;;;;;;9.13;100.00;97379.00;5045630;28;20017;-77
2023/10/28 03:16:44;;;;;;;1.23;0.43;;;;;;;9.07;100.00;97355.66;5045557;28;20021;-79
2023/10/28 03:19:11;;;;;;;2.00;0.28;;;;;;;9.21;100.00;97375.97;5044587;28;20040;-77
2023/10/28 03:21:36;;;;;;;0.57;0.40;;;;;;;9.16;100.00;97362.34;5045529;28;20021;-79
2023/10/28 03:24:01;;;;;;;1.80;0.30;;;;;;;9.20;100.00;97364.38;5051760;28;20434;-77
2023/10/28 03:26:27;;;;;;;0.45;0.30;;;;;;;9.25;100.00;97379.88;5043971;28;20017;-77
2023/10/28 03:28:52;;;;;;;0.75;0.20;;;;;;;9.22;100.00;97369.50;5047172;28;20120;-79
2023/10/28 03:31:17;;;;;;;3.15;0.30;;;;;;;9.26;100.00;97370.72;5055188;28;20025;-77
2023/10/28 03:33:43;;;;;;;0.20;0.20;;;;;;;9.15;100.00;97366.13;5044369;28;20018;-77
2023/10/28 03:36:09;;;;;;;1.85;0.68;;;;;;;9.24;100.00;97375.50;5040063;28;20069;-78
2023/10/28 03:38:34;;;;;;;2.80;0.40;;;;;;;9.20;100.00;97368.94;5024690;28;20045;-77
2023/10/28 03:41:08;;;;;;;3.60;0.98;;;;;;;9.08;100.00;97346.50;5052619;28;20036;-79
2023/10/28 03:43:34;;;;;;;3.97;0.30;;;;;;;9.27;100.00;97363.44;5072542;28;20033;-79
2023/10/28 03:45:59;;;;;;;1.38;0.30;;;;;;;9.31;100.00;97384.34;5067804;28;20032;-80
2023/10/28 03:48:25;;;;;;;1.85;0.30;;;;;;;9.29;100.00;97381.03;5063083;28;20033;-77
2023/10/28 03:51:02;;;;;;;2.65;0.40;;;;;;;9.32;100.00;97383.28;5045518;28;20021;-77
2023/10/28 03:53:27;;;;;;;1.25;0.60;;;;;;;9.26;100.00;97378.81;5044597;28;20071;-77
2023/10/28 03:55:53;;;;;;;3.78;0.90;;;;;;;9.12;100.00;97367.41;5045668;28;20025;-78
2023/10/28 03:58:19;;;;;;;0.98;0.40;;;;;;;9.16;100.00;97373.97;5056925;28;20025;-78
2023/10/28 04:00:44;;;;;;;4.22;0.60;;;;;;;9.06;100.00;97364.78;5061397;28;20056;-78
2023/10/28 04:03:10;;;;;;;2.17;0.55;;;;;;;9.08;100.00;97368.06;5063361;28;20037;-78
2023/10/28 04:05:35;;;;;;;2.50;0.50;;;;;;;9.13;100.00;97373.59;5053852;28;20028;-78
2023/10/28 04:08:00;;;;;;;6.18;0.60;;;;;;;9.10;100.00;97363.28;5043509;28;20076;-78
2023/10/28 04:10:26;;;;;;;2.47;0.65;;;;;;;9.23;100.00;97375.75;5043414;28;20029;-78
2023/10/28 04:12:51;;;;;;;3.22;0.38;;;;;;;9.19;100.00;97373.50;5053999;28;20314;-77
2023/10/28 04:15:18;;;;;;;2.55;0.40;;;;;;;9.22;100.00;97385.72;5059003;28;20218;-78
2023/10/28 04:17:43;;;;;;;3.35;0.70;;;;;;;9.15;100.00;97380.41;5054610;28;20327;-77
2023/10/28 04:20:10;;;;;;;2.45;0.50;;;;;;;9.21;100.00;97384.06;5044505;28;20075;-79
2023/10/28 04:22:36;;;;;;;1.85;0.38;;;;;;;9.07;100.00;97359.16;5043127;28;20021;-82
2023/10/28 04:25:01;;;;;;;2.15;0.52;;;;;;;9.02;100.00;97333.94;5044215;28;20021;-78
2023/10/28 04:27:26;;;;;;;1.58;0.40;;;;;;;9.29;100.00;97361.34;5042530;28;20024;-78
2023/10/28 04:29:52;;;;;;;1.42;0.60;;;;;;;9.34;100.00;97373.09;5034365;28;20200;-82
2023/10/28 04:32:20;;;;;;;4.93;0.90;;;;;;;9.38;100.00;97350.00;5039598;28;20104;-78
2023/10/28 04:34:45;;;;;;;0.95;0.38;;;;;;;9.38;100.00;97360.78;5042213;28;20029;-78
2023/10/28 04:37:12;;;;;;;2.65;0.60;;;;;;;9.30;100.00;97365.66;5056931;28;20033;-79
2023/10/28 04:39:40;;;;;;;1.52;0.50;;;;;;;9.23;100.00;97356.88;5047502;28;20108;-78
2023/10/28 04:42:07;;;;;;;2.33;0.57;;;;;;;9.30;100.00;97368.38;5048390;28;20032;-80
2023/10/28 04:44:32;;;;;;;4.10;0.57;;;;;;;9.17;100.00;97350.53;5042498;28;20210;-79
2023/10/28 04:46:58;;;;;;;2.80;0.70;;;;;;;9.24;100.00;97353.94;5040222;28;20029;-80
2023/10/28 04:49:23;;;;;;;2.80;0.88;;;;;;;9.26;100.00;97367.19;5051147;28;20068;-78
2023/10/28 04:51:49;;;;;;;3.55;1.70;;;;;;;9.15;100.00;97342.66;5051700;28;20021;-80
2023/10/28 04:54:14;;;;;;;6.18;2.45;;;;;;;9.23;100.00;97357.69;5059722;28;20029;-78
2023/10/28 04:56:39;;;;;;;6.38;2.92;;;;;;;9.24;100.00;97353.09;5054444;28;20021;-76
2023/10/28 04:59:07;;;;;;;8.50;3.47;;;;;;;9.22;100.00;97353.31;5063535;28;20059;-77
2023/10/28 05:01:32;;;;;;;8.88;2.15;;;;;;;9.25;100.00;97363.69;5045834;28;20147;-76
2023/10/28 05:03:58;;;;;;;4.35;2.00;;;;;;;9.15;100.00;97353.44;5041676;28;20025;-78
2023/10/28 05:06:23;;;;;;;7.72;2.10;;;;;;;9.15;100.00;97350.75;5056798;28;20025;-78
2023/10/28 05:08:49;;;;;;;4.53;1.63;;;;;;;9.22;100.00;97358.72;5061965;28;20222;-76
2023/10/28 05:11:16;;;;;;;7.80;1.75;;;;;;;9.28;100.00;97360.53;5040265;28;20113;-73
2023/10/28 05:13:42;;;;;;;2.25;1.08;;;;;;;9.16;100.00;97352.38;5053811;28;20087;-73
2023/10/28 05:16:09;;;;;;;3.83;1.00;;;;;;;9.13;100.00;97343.94;5047716;28;20179;-71
2023/10/28 05:18:35;;;;;;;7.32;1.20;;;;;;;9.14;100.00;97353.66;5038921;28;20116;-73
2023/10/28 05:21:01;;;;;;;2.78;1.13;;;;;;;9.09;100.00;97345.44;5040510;28;20032;-75
2023/10/28 05:23:26;;;;;;;5.72;1.10;;;;;;;9.09;100.00;97348.13;5047703;28;20057;-75
2023/10/28 05:25:51;;;;;;;5.07;0.90;;;;;;;9.07;100.00;97363.75;5048391;28;20064;-72
2023/10/28 05:28:17;;;;;;;5.05;1.35;;;;;;;9.04;100.00;97351.53;5046381;28;20025;-74
2023/10/28 05:30:42;;;;;;;3.33;0.75;;;;;;;9.09;100.00;97361.63;5041685;28;20033;-75
2023/10/28 05:33:08;;;;;;;4.72;0.70;;;;;;;9.03;100.00;97346.34;5036986;28;20017;-82
2023/10/28 05:35:33;;;;;;;3.88;1.00;;;;;;;9.18;100.00;97363.78;5045355;28;20070;-80
2023/10/28 05:37:59;;;;;;;4.10;0.77;;;;;;;9.06;100.00;97343.19;5049503;28;20018;-77
2023/10/28 05:40:24;;;;;;;3.97;0.88;;;;;;;9.14;100.00;97359.06;5045649;28;20233;-75
2023/10/28 05:42:49;;;;;;;1.23;0.65;;;;;;;9.04;100.00;97346.13;5045835;28;20214;-77
2023/10/28 05:45:15;;;;;;;4.43;0.80;;;;;;;8.98;100.00;97350.56;5048065;28;20025;-76
2023/10/28 05:47:40;;;;;;;2.20;0.82;;;;;;;8.87;100.00;97350.53;5036921;28;20033;-76
2023/10/28 05:50:07;;;;;;;4.25;0.85;;;;;;;9.10;100.00;97374.88;5050209;28;20092;-73
2023/10/28 05:52:34;;;;;;;5.13;0.95;;;;;;;9.03;100.00;97367.94;5043578;28;20024;-79
2023/10/28 05:55:00;;;;;;;1.77;0.63;;;;;;;9.15;100.00;97371.50;5051602;28;20021;-82
2023/10/28 05:57:26;;;;;;;3.95;0.98;;;;;;;9.20;100.00;97366.25;5043221;28;20382;-79
2023/10/28 05:59:52;;;;;;;3.10;0.63;;;;;;;9.33;100.00;97367.94;5029313;28;20064;-80
2023/10/28 06:02:17;;;;;;;4.90;0.73;;;;;;;9.41;100.00;97386.50;5038105;28;20369;-80
2023/10/28 06:04:42;;;;;;;2.63;0.70;;;;;;;9.41;100.00;97371.13;5045935;28;20026;-79
2023/10/28 06:07:08;;;;;;;3.70;0.75;;;;;;;9.38;100.00;97346.47;5046680;28;20097;-80
2023/10/28 06:09:33;;;;;;;1.35;0.52;;;;;;;9.49;100.00;97361.88;5035321;28;20045;-79
2023/10/28 06:11:59;;;;;;;3.33;0.90;;;;;;;9.62;100.00;97369.75;5037921;28;20052;-79
2023/10/28 06:14:24;;;;;;;3.08;0.80;;;;;;;9.67;100.00;97363.66;5041915;28;20017;-85
2023/10/28 06:16:49;;;;;;;2.47;0.60;;;;;;;9.75;100.00;97376.00;5038031;28;20028;-81
2023/10/28 06:19:15;;;;;;;2.33;0.60;;;;;;;9.80;100.00;97379.63;5038830;28;20313;-80
2023/10/28 06:21:40;;;;;;;1.92;0.60;;;;;;;9.90;100.00;97384.44;5039089;28;20089;-80
2023/10/28 06:24:07;;;;;;;2.45;0.70;;;;;;;9.80;100.00;97374.25;5041933;28;20148;-79
2023/10/28 06:26:32;;;;;;;2.65;0.70;;;;;;;9.84;100.00;97383.50;5037657;28;20017;-80
2023/10/28 06:28:58;;;;;;;4.68;0.88;;;;;;;9.87;100.00;97393.84;5032508;28;20089;-79
2023/10/28 06:31:26;;;;;;;2.70;0.77;;;;;;;9.88;100.00;97395.50;5044621;28;20021;-80
2023/10/28 06:33:52;;;;;;;2.38;0.80;;;;;;;9.97;100.00;97401.38;5035116;28;20076;-78
2023/10/28 06:36:18;;;;;;;4.90;1.00;;;;;;;9.98;100.00;97408.44;5041528;28;20028;-79
2023/10/28 06:38:44;;;;;;;1.40;0.98;;;;;;;9.90;100.00;97399.84;5047660;28;20234;-78
2023/10/28 06:41:09;;;;;;;2.90;0.70;;;;;;;10.01;100.00;97396.34;5040478;28;20088;-82
2023/10/28 06:43:35;;;;;;;4.90;0.90;;;;;;;9.87;100.00;97385.72;5047948;28;20017;-80
2023/10/28 06:46:01;;;;;;;2.90;0.85;;;;;;;10.13;100.00;97418.75;5047855;28;20028;-86
2023/10/28 06:48:26;;;;;;;5.35;0.95;;;;;;;10.07;100.00;97406.19;5057039;28;20020;-75
2023/10/28 06:50:52;;;;;;;4.25;0.68;;;;;;;10.25;100.00;97408.78;5055786;28;20052;-75
2023/10/28 06:53:17;;;;;;;3.25;0.80;;;;;;;10.38;100.00;97417.75;5045777;28;20017;-73
2023/10/28 06:55:42;;;;;;;3.53;1.05;;;;;;;10.41;100.00;97417.28;5039363;28;20027;-75
2023/10/28 06:58:08;;;;;;;6.22;0.90;;;;;;;10.34;100.00;97421.97;5035667;28;20049;-75
2023/10/28 07:00:33;;;;;;;4.43;1.20;;;;;;;10.45;100.00;97438.22;5046770;28;20083;-73
2023/10/28 07:02:59;;;;;;;5.85;1.10;;;;;;;10.34;100.00;97413.88;5041426;28;20025;-74
2023/10/28 07:05:41;;;;;;;4.50;0.95;;;;;;;10.44;100.00;97438.44;5042169;28;20349;-80
2023/10/28 07:08:07;;;;;;;4.50;1.30;;;;;;;10.41;100.00;97422.69;5037125;28;20103;-75
2023/10/28 07:10:32;;;;;;;3.08;0.90;;;;;;;10.44;100.00;97430.31;5038472;28;20275;-76
2023/10/28 07:12:58;;;;;;;4.05;1.10;;;;;;;10.43;100.00;97436.78;5046147;28;20013;-76
2023/10/28 07:15:24;;;;;;;3.10;0.80;;;;;;;10.49;100.00;97428.53;5039047;28;20025;-77
2023/10/28 07:17:49;;;;;;;3.38;0.98;;;;;;;10.72;100.00;97445.81;5038237;28;20214;-78
2023/10/28 07:20:18;;;;;;;3.35;1.17;;;;;;;10.91;100.00;97460.81;5042196;28;20044;-72
2023/10/28 07:22:44;;;;;;;5.05;0.98;;;;;;;11.08;100.00;97441.97;5043330;28;20357;-73
2023/10/28 07:25:10;;;;;;;3.80;0.88;;;;;;;11.34;100.00;97413.50;5045205;28;20038;-84
2023/10/28 07:27:35;;;;;;;3.88;1.00;;;;;;;11.92;100.00;97444.09;5052112;28;20044;-74
2023/10/28 07:30:00;;;;;;;3.58;0.98;;;;;;;12.16;100.00;97433.09;5040099;28;20259;-76
2023/10/28 07:32:26;;;;;;;1.73;1.02;;;;;;;12.28;100.00;97418.34;5043447;28;20020;-77
2023/10/28 07:34:51;;;;;;;5.28;1.00;;;;;;;12.49;100.00;97435.75;5042531;28;20017;-75
2023/10/28 07:37:16;;;;;;;3.78;0.90;;;;;;;12.69;100.00;97412.69;5042530;28;20025;-79
2023/10/28 07:39:43;;;;;;;1.35;0.68;;;;;;;12.76;100.00;97397.06;5044041;28;20254;-74
2023/10/28 07:42:08;;;;;;;3.65;0.85;;;;;;;13.01;100.00;97418.25;5039416;28;20022;-78
2023/10/28 07:44:34;;;;;;;3.50;0.68;;;;;;;13.00;100.00;97440.25;5047563;28;20021;-79
2023/10/28 07:46:59;;;;;;;4.57;0.85;;;;;;;12.86;100.00;97427.03;5038447;28;20166;-78
2023/10/28 07:49:24;;;;;;;3.85;0.88;;;;;;;12.70;100.00;97438.75;5045994;28;20024;-78
2023/10/28 07:51:50;;;;;;;3.75;0.80;;;;;;;12.69;100.00;97456.13;5045589;28;20311;-79
2023/10/28 07:54:15;;;;;;;2.60;0.70;;;;;;;12.62;100.00;97444.59;5043619;28;20033;-77
2023/10/28 07:56:42;;;;;;;5.03;0.95;;;;;;;13.82;100.00;97448.22;5041545;28;20334;-78
2023/10/28 07:59:09;;;;;;;4.00;1.00;;;;;;;16.18;100.00;97446.69;5055652;28;20322;-77
2023/10/28 08:01:34;;;;;;;1.60;0.43;;;;;;;18.25;100.00;97465.63;5042987;28;20036;-78
2023/10/28 08:03:59;;;;;;;3.50;0.57;;;;;;;19.59;100.00;97461.22;5051331;23;20046;-73
2023/10/28 08:06:25;;;;;;;3.20;0.60;;;;;;;20.15;88.70;97470.63;5023562;28;20033;-73
2023/10/28 08:08:54;;;;;;;3.65;0.80;;;;;;;18.04;100.00;97460.31;5012597;28;20064;-74
2023/10/28 08:11:23;;;;;;;3.10;0.95;;;;;;;16.75;100.00;97472.84;5030173;28;20026;-73
2023/10/28 08:13:49;;;;;;;2.28;0.68;;;;;;;15.83;100.00;97474.75;5031009;28;20100;-74
2023/10/28 08:16:18;;;;;;;3.55;0.70;;;;;;;15.43;100.00;97463.44;5032044;28;20033;-74
2023/10/28 08:18:44;;;;;;;;;;;;;;;17.36;100.00;97473.78;5034129;28;20031;-73
2023/10/28 08:21:10;;;;;;;3.28;0.82;;;;;;;18.20;100.00;97462.94;5045295;28;19904;-73
2023/10/28 08:23:38;;;;;;;2.63;0.73;;;;;;;18.08;100.00;97460.56;5027283;28;20348;-74
2023/10/28 08:26:05;;;;;;;3.50;0.70;;;;;;;19.79;100.00;97468.38;5045059;28;20029;-73
2023/10/28 08:28:31;;;;;;;3.08;0.93;;;;;;;18.85;100.00;97463.47;5027905;28;20028;-74
2023/10/28 08:30:56;;;;;;;4.20;0.90;;;;;;;17.38;100.00;97468.88;5026259;28;20025;-74
2023/10/28 08:33:22;;;;;;;2.97;0.60;;;;;;;16.36;100.00;97478.88;5033959;28;20021;-74
2023/10/28 08:35:48;;;;;;;4.25;1.15;;;;;;;15.81;100.00;97458.66;5021542;28;20018;-74
2023/10/28 08:38:17;;;;;;;5.50;0.55;;;;;;;15.27;100.00;97473.47;5027950;28;20110;-74
2023/10/28 08:40:46;;;;;;;1.92;0.75;;;;;;;14.77;100.00;97476.75;5028464;28;20028;-73
2023/10/28 08:43:14;;;;;;;3.10;0.55;;;;;;;14.78;100.00;97483.84;5029536;28;20097;-73
2023/10/28 08:45:42;;;;;;;3.30;0.68;;;;;;;14.79;100.00;97489.00;5024110;28;20030;-73
2023/10/28 08:48:10;;;;;;;5.00;0.68;;;;;;;15.22;100.00;97476.19;5023306;28;20033;-73
2023/10/28 08:50:38;;;;;;;2.05;0.70;;;;;;;15.68;100.00;97464.59;5028891;28;20021;-73
2023/10/28 08:53:03;;;;;;;4.40;0.80;;;;;;;16.61;100.00;97464.41;5025697;28;20466;-74
2023/10/28 08:55:30;;;;;;;3.25;0.80;;;;;;;16.39;100.00;97472.88;5039371;28;20022;-73
2023/10/28 08:57:56;;;;;;;4.15;0.80;;;;;;;16.84;100.00;97471.19;5031568;28;20034;-73
2023/10/28 09:00:23;;;;;;;4.57;0.60;;;;;;;18.94;100.00;97464.47;5027627;28;20064;-74
2023/10/28 09:02:49;;;;;;;2.78;0.50;;;;;;;21.31;91.50;97463.34;5025655;28;20052;-73
2023/10/28 09:05:16;;;;;;;4.05;0.70;;;;;;;19.89;89.77;97481.97;5032574;28;20026;-74
2023/10/28 09:07:45;;;;;;;2.30;0.70;;;;;;;18.59;94.37;97488.31;5022384;28;20022;-74
2023/10/28 09:10:11;;;;;;;2.10;0.50;;;;;;;17.72;100.00;97485.38;5022366;28;20494;-74
2023/10/28 09:12:36;;;;;;;4.68;0.90;;;;;;;17.95;100.00;97473.78;5041720;28;20088;-74
2023/10/28 09:15:03;;;;;;;5.88;0.80;;;;;;;17.42;100.00;97469.94;5034130;28;20042;-74
2023/10/28 09:17:29;;;;;;;3.03;0.60;;;;;;;17.23;100.00;97486.94;5027613;28;20151;-74
2023/10/28 09:19:56;;;;;;;4.22;0.60;;;;;;;17.37;100.00;97475.41;5028164;28;20022;-74
2023/10/28 09:22:22;;;;;;;2.35;0.65;;;;;;;19.20;100.00;97475.13;5036191;28;20337;-74
2023/10/28 09:24:48;;;;;;;3.55;0.50;;;;;;;18.74;98.32;97468.19;5024428;28;20021;-74
2023/10/28 09:27:14;;;;;;;2.53;0.60;;;;;;;19.12;91.18;97462.06;5028364;28;20109;-73
2023/10/28 09:29:41;;;;;;;3.13;0.60;;;;;;;19.98;87.07;97467.56;5032329;28;20018;-73
2023/10/28 09:32:08;;;;;;;3.47;0.60;;;;;;;21.57;78.82;97473.88;5029251;28;20037;-74
2023/10/28 09:34:38;;;;;;;2.38;0.63;;;;;;;21.57;74.64;97471.94;5026781;28;20081;-73
2023/10/28 09:37:04;;;;;;;1.90;0.77;;;;;;;21.56;73.00;97484.06;5027511;28;20042;-74
2023/10/28 09:39:31;;;;;;;2.22;0.63;;;;;;;20.02;78.69;97493.34;5036888;28;20022;-74
2023/10/28 09:41:57;;;;;;;4.03;0.88;;;;;;;20.46;80.48;97484.69;5029023;28;20085;-74
2023/10/28 09:44:24;;;;;;;2.90;0.50;;;;;;;20.50;76.73;97480.19;5026123;28;20234;-73
2023/10/28 09:46:52;;;;;;;2.78;0.73;;;;;;;21.89;73.06;97472.88;5024537;28;20032;-73
2023/10/28 09:49:20;;;;;;;3.72;0.63;;;;;;;21.64;72.14;97468.75;5026687;28;20041;-74
2023/10/28 09:51:52;;;;;;;3.83;0.70;;;;;;;21.48;73.51;97484.75;5027247;28;20036;-74
2023/10/28 09:54:23;;;;;;;4.25;0.68;;;;;;;20.91;72.66;97465.78;5020567;28;20034;-74
2023/10/28 09:56:51;;;;;;;4.13;0.60;;;;;;;20.95;72.95;97464.03;5030877;28;20046;-74
2023/10/28 09:59:20;;;;;;;3.53;1.13;;;;;;;19.79;76.37;97476.63;5031159;28;20028;-74
2023/10/28 10:02:12;;;;;;;1.73;0.68;;;;;;;19.07;79.86;97471.16;5025165;28;20043;-73
2023/10/28 10:04:41;;;;;;;3.30;0.65;;;;;;;18.62;83.11;97478.72;5029789;28;20038;-73
2023/10/28 10:07:06;;;;;;;5.53;0.80;;;;;;;17.73;93.12;97481.53;5029195;28;20057;-74
2023/10/28 10:09:42;;;;;;;2.92;0.70;;;;;;;17.47;100.00;97480.84;5026473;28;20022;-73
2023/10/28 10:12:08;;;;;;;3.33;0.60;;;;;;;17.21;100.00;97475.50;5027879;28;20100;-74
2023/10/28 10:14:38;;;;;;;2.33;0.60;;;;;;;17.15;100.00;97481.25;5026450;28;20022;-74
2023/10/28 10:17:28;;;;;;;4.03;0.95;;;;;;;16.90;100.00;97484.84;5018919;28;20033;-73
2023/10/28 10:19:59;;;;;;;6.68;0.70;;;;;;;16.22;100.00;97491.44;5023471;28;20085;-73
2023/10/28 10:22:29;;;;;;;3.10;0.40;;;;;;;16.33;100.00;97486.81;5022601;28;20346;-74
2023/10/28 10:24:54;;;;;;;3.70;0.75;;;;;;;16.25;100.00;97485.44;5027041;28;20086;-74
2023/10/28 10:27:45;;;;;;;2.70;0.50;;;;;;;16.48;100.00;97480.50;5025089;28;20029;-75
2023/10/28 10:30:11;;;;;;;3.75;0.70;;;;;;;16.46;100.00;97482.72;5027198;28;20025;-74
2023/10/28 10:32:50;;;;;;;1.83;0.57;;;;;;;16.32;100.00;97493.34;5025520;28;20025;-73
2023/10/28 10:35:31;;;;;;;;;;;;;;;16.38;100.00;97482.16;5030652;28;20024;-73
2023/10/28 10:38:04;;;;;;;1.88;0.60;;;;;;;16.52;100.00;97489.81;5032958;28;19918;-73
2023/10/28 10:40:32;;;;;;;4.00;0.45;;;;;;;16.54;100.00;97491.16;5022664;28;20022;-73
2023/10/28 10:43:05;;;;;;;4.82;0.70;;;;;;;16.57;100.00;97492.53;5023104;28;20036;-74
2023/10/28 10:45:30;;;;;;;5.55;0.80;;;;;;;16.43;100.00;97475.91;5023737;28;20038;-74
2023/10/28 10:47:57;;;;;;;4.00;0.68;;;;;;;16.55;100.00;97484.59;5032936;28;20021;-73
2023/10/28 10:50:25;;;;;;;4.57;0.65;;;;;;;16.53;100.00;97485.97;5027587;28;20100;-73
2023/10/28 10:52:52;;;;;;;5.75;0.82;;;;;;;16.32;100.00;97480.53;5033401;28;20030;-73
2023/10/28 10:55:23;;;;;;;2.47;0.50;;;;;;;17.26;100.00;97466.44;5030767;28;20029;-74
2023/10/28 10:57:52;;;;;;;5.78;0.60;;;;;;;18.10;100.00;97472.88;5026359;28;20021;-73
2023/10/28 11:00:18;;;;;;;2.43;0.60;;;;;;;17.84;100.00;97472.22;5028062;28;20088;-74
2023/10/28 11:02:45;;;;;;;4.45;0.57;;;;;;;17.73;100.00;97479.59;5040856;28;20022;-73
2023/10/28 11:05:12;;;;;;;2.90;0.50;;;;;;;16.81;100.00;97479.97;5030650;28;20105;-73
2023/10/28 11:07:38;;;;;;;3.40;1.08;;;;;;;16.47;100.00;97493.34;5026917;28;20033;-73
2023/10/28 11:10:08;;;;;;;4.70;0.77;;;;;;;16.18;100.00;97487.63;5027018;28;20030;-73
2023/10/28 11:12:37;;;;;;;5.13;0.75;;;;;;;15.51;100.00;97495.63;5023268;28;20334;-73
2023/10/28 11:15:03;;;;;;;3.60;0.57;;;;;;;15.57;100.00;97485.56;5031943;28;20049;-73
2023/10/28 11:17:29;;;;;;;3.90;0.73;;;;;;;15.45;100.00;97493.97;5029318;28;20097;-73
2023/10/28 11:19:58;;;;;;;3.00;0.80;;;;;;;15.37;100.00;97486.31;5037705;28;20017;-73
2023/10/28 11:22:24;;;;;;;;;;;;;;;15.34;100.00;97482.19;5032558;28;20033;-73
2023/10/28 11:24:56;;;;;;;4.32;0.50;;;;;;;14.99;100.00;97488.31;5035761;28;19905;-73
2023/10/28 11:27:24;;;;;;;1.85;0.55;;;;;;;15.05;100.00;97473.63;5031163;28;20172;-73
2023/10/28 11:29:51;;;;;;;4.60;0.90;;;;;;;14.97;100.00;97486.94;5035104;28;20029;-73